| time (UTC) | temp F | wind direction | speed MPH | gust MPH | rain 1hr in | rain 24hr in | rain mn in | humidity % | barometer mb |
| 20260901114556 | 36 | 34 | 0.0 | 2.0 | 0.00 | 0.44 | 0.00 | 91 | 1006.4 |
| 20260901113059 | 36 | 171 | 1.0 | 3.0 | 0.00 | 0.44 | 0.00 | 91 | 1006.3 |
| 20260901111553 | 37 | 265 | 1.0 | 2.0 | 0.00 | 0.44 | 0.00 | 91 | 1006.3 |
| 20260901110055 | 37 | 319 | 0.0 | 2.0 | 0.00 | 0.44 | 0.00 | 90 | 1006.2 |
| 20260901104601 | 38 | 0 | 0.0 | 2.0 | 0.00 | 0.44 | 0.00 | 89 | 1006.2 |
| 20260901103054 | 39 | 0 | 0.0 | 2.0 | 0.00 | 0.44 | 0.00 | 88 | 1006.1 |
| 20260901101554 | 40 | 352 | 0.0 | 3.0 | 0.00 | 0.44 | 0.00 | 87 | 1006.0 |
| 20260901100055 | 42 | 105 | 0.0 | 2.0 | 0.00 | 0.44 | 0.00 | 84 | 1006.0 |
| 20260901094552 | 44 | 0 | 0.0 | 2.0 | 0.00 | 0.44 | 0.00 | 83 | 1005.9 |
| 20260901093053 | 44 | 61 | 1.0 | 8.0 | 0.00 | 0.44 | 0.00 | 84 | 1006.0 |
| 20260901091602 | 43 | 335 | 4.0 | 13.0 | 0.00 | 0.44 | 0.00 | 89 | 1005.8 |
| 20260901090054 | 42 | 306 | 2.0 | 7.0 | 0.00 | 0.44 | 0.00 | 92 | 1005.6 |
| 20260901084549 | 41 | 303 | 1.0 | 6.0 | 0.00 | 0.44 | 0.00 | 92 | 1005.7 |
| 20260901083100 | 41 | 301 | 1.0 | 3.0 | 0.00 | 0.44 | 0.00 | 93 | 1005.5 |
| 20260901081555 | 40 | 352 | 3.0 | 7.0 | 0.00 | 0.44 | 0.00 | 93 | 1005.4 |
| 20260901080052 | 40 | 346 | 1.0 | 3.0 | 0.00 | 0.44 | 0.00 | 92 | 1005.2 |
| 20260901074551 | 41 | 0 | 0.0 | 3.0 | 0.00 | 0.45 | 0.44 | 92 | 1005.3 |
| 20260901073058 | 41 | 342 | 1.0 | 3.0 | 0.00 | 0.45 | 0.44 | 92 | 1005.3 |
| 20260901071604 | 41 | 0 | 0.0 | 2.0 | 0.00 | 0.45 | 0.44 | 91 | 1005.3 |
| 20260901070059 | 42 | 0 | 1.0 | 3.0 | 0.00 | 0.45 | 0.44 | 91 | 1005.2 |
| 20260901064555 | 42 | 344 | 0.0 | 2.0 | 0.00 | 0.49 | 0.44 | 91 | 1005.1 |
| 20260901063053 | 43 | 340 | 0.0 | 3.0 | 0.00 | 0.49 | 0.44 | 91 | 1005.0 |
| 20260901061555 | 43 | 292 | 1.0 | 3.0 | 0.00 | 0.49 | 0.44 | 90 | 1004.7 |
| 20260901060105 | 44 | 298 | 0.0 | 2.0 | 0.00 | 0.49 | 0.44 | 89 | 1004.5 |
| 20260901054553 | 45 | 284 | 2.0 | 4.0 | 0.00 | 0.51 | 0.44 | 89 | 1004.4 |
| 20260901053055 | 45 | 340 | 1.0 | 3.0 | 0.00 | 0.51 | 0.44 | 87 | 1004.2 |
| 20260901051600 | 46 | 339 | 1.0 | 2.0 | 0.00 | 0.51 | 0.44 | 86 | 1004.1 |
| 20260901050055 | 48 | 0 | 0.0 | 4.0 | 0.00 | 0.51 | 0.44 | 84 | 1003.9 |
| 20260901044551 | 49 | 315 | 1.0 | 4.0 | 0.00 | 0.52 | 0.44 | 81 | 1003.7 |
| 20260901043113 | 50 | 286 | 1.0 | 4.0 | 0.00 | 0.52 | 0.44 | 80 | 1003.8 |
| 20260901041551 | 51 | 232 | 2.0 | 3.0 | 0.00 | 0.52 | 0.44 | 80 | 1003.8 |
| 20260901040116 | 51 | 261 | 1.0 | 2.0 | 0.00 | 0.52 | 0.44 | 79 | 1003.5 |
| 20260901034600 | 52 | 225 | 1.0 | 2.0 | 0.00 | 0.52 | 0.44 | 73 | 1003.5 |
| 20260901033108 | 53 | 0 | 0.0 | 1.0 | 0.00 | 0.52 | 0.44 | 72 | 1003.3 |
| 20260901031605 | 55 | 110 | 0.0 | 2.0 | 0.00 | 0.52 | 0.44 | 69 | 1003.2 |
| 20260901030057 | 56 | 0 | 0.0 | 3.0 | 0.00 | 0.52 | 0.44 | 68 | 1003.1 |
| 20260901024553 | 55 | 278 | 0.0 | 3.0 | 0.00 | 0.52 | 0.44 | 70 | 1002.9 |
| 20260901023102 | 54 | 99 | 1.0 | 4.0 | 0.00 | 0.52 | 0.44 | 69 | 1002.9 |
| 20260901021556 | 54 | 208 | 1.0 | 6.0 | 0.00 | 0.52 | 0.44 | 72 | 1002.7 |
| 20260901020054 | 52 | 0 | 2.0 | 5.0 | 0.00 | 0.52 | 0.44 | 71 | 1002.5 |
| 20260901014600 | 52 | 71 | 2.0 | 4.0 | 0.00 | 0.52 | 0.44 | 71 | 1002.5 |
| 20260901013051 | 51 | 80 | 1.0 | 7.0 | 0.00 | 0.52 | 0.44 | 72 | 1002.5 |
| 20260901011555 | 51 | 60 | 2.0 | 9.0 | 0.00 | 0.52 | 0.44 | 74 | 1002.4 |
| 20260901004606 | 50 | 86 | 4.0 | 8.0 | 0.00 | 0.52 | 0.44 | 77 | 1002.3 |
| 20260901003101 | 50 | 11 | 3.0 | 9.0 | 0.00 | 0.52 | 0.44 | 75 | 1002.3 |
| 20260901001604 | 52 | 343 | 3.0 | 7.0 | 0.00 | 0.52 | 0.44 | 75 | 1002.1 |
| 20260901000058 | 51 | 42 | 1.0 | 4.0 | 0.00 | 0.52 | 0.44 | 75 | 1002.0 |
| 20260831234554 | 51 | 5 | 1.0 | 6.0 | 0.00 | 0.52 | 0.44 | 76 | 1001.9 |
| 20260831233054 | 50 | 19 | 1.0 | 7.0 | 0.00 | 0.52 | 0.44 | 76 | 1001.9 |
| 20260831231548 | 52 | 315 | 2.0 | 6.0 | 0.00 | 0.52 | 0.44 | 76 | 1001.8 |
| 20260831230058 | 51 | 190 | 1.0 | 5.0 | 0.00 | 0.52 | 0.44 | 80 | 1001.9 |
| 20260831224557 | 50 | 109 | 1.0 | 6.0 | 0.00 | 0.52 | 0.44 | 80 | 1001.8 |
| 20260831223058 | 49 | 144 | 2.0 | 8.0 | 0.00 | 0.52 | 0.44 | 84 | 1001.9 |
| 20260831221603 | 47 | 180 | 3.0 | 10.0 | 0.00 | 0.52 | 0.44 | 86 | 1001.9 |
| 20260831220054 | 45 | 184 | 4.0 | 10.0 | 0.00 | 0.52 | 0.44 | 87 | 1002.0 |
| 20260831214556 | 45 | 163 | 4.0 | 8.0 | 0.01 | 0.52 | 0.44 | 88 | 1001.9 |
| 20260831213056 | 44 | 144 | 2.0 | 7.0 | 0.01 | 0.52 | 0.44 | 89 | 1001.9 |
| 20260831211558 | 44 | 148 | 3.0 | 9.0 | 0.01 | 0.52 | 0.44 | 88 | 1001.9 |
| 20260831210054 | 44 | 202 | 3.0 | 8.0 | 0.01 | 0.52 | 0.44 | 89 | 1001.9 |
| 20260831204554 | 43 | 158 | 4.0 | 9.0 | 0.00 | 0.52 | 0.43 | 88 | 1001.9 |
| 20260831203102 | 43 | 157 | 4.0 | 9.0 | 0.00 | 0.52 | 0.43 | 89 | 1001.8 |
| 20260831201557 | 43 | 181 | 3.0 | 8.0 | 0.00 | 0.52 | 0.43 | 88 | 1001.8 |
| 20260831200056 | 44 | 176 | 3.0 | 8.0 | 0.01 | 0.52 | 0.43 | 90 | 1001.7 |
| 20260831194605 | 44 | 193 | 1.0 | 5.0 | 0.03 | 0.52 | 0.43 | 92 | 1001.8 |
| 20260831193053 | 43 | 178 | 1.0 | 6.0 | 0.04 | 0.52 | 0.43 | 92 | 1001.7 |
| 20260831191558 | 42 | 275 | 1.0 | 5.0 | 0.04 | 0.52 | 0.43 | 91 | 1001.8 |
| 20260831190108 | 42 | 339 | 0.0 | 4.0 | 0.03 | 0.51 | 0.42 | 92 | 1001.8 |
| 20260831184557 | 42 | 350 | 1.0 | 4.0 | 0.01 | 0.49 | 0.40 | 92 | 1001.8 |
| 20260831183050 | 42 | 258 | 0.0 | 4.0 | 0.00 | 0.48 | 0.39 | 91 | 1001.9 |
| 20260831181600 | 42 | 236 | 0.0 | 5.0 | 0.00 | 0.48 | 0.39 | 91 | 1001.9 |
| 20260831180054 | 41 | 225 | 0.0 | 6.0 | 0.00 | 0.48 | 0.39 | 91 | 1001.7 |
| 20260831174559 | 41 | 200 | 1.0 | 3.0 | 0.00 | 0.48 | 0.39 | 91 | 1001.9 |
| 20260831173115 | 41 | 236 | 0.0 | 6.0 | 0.00 | 0.48 | 0.39 | 91 | 1001.7 |
| 20260831171555 | 41 | 238 | 2.0 | 8.0 | 0.00 | 0.48 | 0.39 | 91 | 1001.6 |
| 20260831170055 | 41 | 198 | 3.0 | 10.0 | 0.01 | 0.48 | 0.39 | 91 | 1001.5 |
| 20260831164605 | 41 | 185 | 2.0 | 8.0 | 0.03 | 0.48 | 0.39 | 91 | 1001.5 |
| 20260831163057 | 41 | 184 | 4.0 | 10.0 | 0.09 | 0.48 | 0.39 | 91 | 1001.6 |
| 20260831161553 | 41 | 165 | 1.0 | 7.0 | 0.12 | 0.48 | 0.39 | 90 | 1001.6 |
| 20260831160105 | 41 | 28 | 4.0 | 11.0 | 0.15 | 0.47 | 0.38 | 90 | 1001.8 |
| 20260831154623 | 41 | 303 | 3.0 | 15.0 | 0.15 | 0.45 | 0.36 | 90 | 1001.9 |
| 20260831153053 | 41 | 270 | 4.0 | 12.0 | 0.12 | 0.39 | 0.30 | 90 | 1002.1 |
| 20260831151552 | 41 | 184 | 5.0 | 21.0 | 0.10 | 0.36 | 0.27 | 89 | 1002.3 |
| 20260831150051 | 42 | 175 | 6.0 | 18.0 | 0.07 | 0.32 | 0.23 | 89 | 1002.0 |
| 20260831144556 | 42 | 175 | 4.0 | 17.0 | 0.06 | 0.30 | 0.21 | 88 | 1001.8 |
| 20260831143057 | 42 | 256 | 4.0 | 11.0 | 0.05 | 0.27 | 0.18 | 89 | 1001.5 |
| 20260831141558 | 42 | 169 | 6.0 | 15.0 | 0.09 | 0.26 | 0.17 | 89 | 1001.6 |
| 20260831140101 | 42 | 276 | 5.0 | 15.0 | 0.09 | 0.25 | 0.16 | 89 | 1001.4 |
| 20260831134558 | 43 | 312 | 5.0 | 20.0 | 0.12 | 0.24 | 0.15 | 89 | 1001.3 |
| 20260831133055 | 47 | 199 | 5.0 | 12.0 | 0.12 | 0.22 | 0.13 | 92 | 1001.5 |
| 20260831131550 | 47 | 0 | 1.0 | 3.0 | 0.08 | 0.17 | 0.08 | 93 | 1001.3 |
| 20260831130059 | 47 | 0 | 2.0 | 3.0 | 0.06 | 0.15 | 0.06 | 92 | 1001.5 |
| 20260831124604 | 47 | 352 | 1.0 | 3.0 | 0.02 | 0.11 | 0.02 | 92 | 1001.7 |
| 20260831123054 | 47 | 14 | 2.0 | 5.0 | 0.01 | 0.10 | 0.01 | 92 | 1001.9 |
| 20260831121548 | 47 | 352 | 2.0 | 6.0 | 0.00 | 0.09 | 0.00 | 92 | 1002.2 |
| 20260831120057 | 47 | 12 | 2.0 | 4.0 | 0.00 | 0.09 | 0.00 | 92 | 1002.4 |